Time;durP1;ratioP1;P1;durP2;ratioP2;P2;SDS_P1;SDS_P2;PMS_P1;PMS_P2;Temp;Humidity;BMP_temperature;BMP_pressure;BME280_temperature;BME280_humidity;BME280_pressure;Samples;Min_cycle;Max_cycle;Signal;HPM_P1;HPM_P2
2024/04/19 00:00:18;;;;;;;4.40;4.00;;;;;;;;;;10785371;26;20003;-66
2024/04/19 00:05:12;;;;;;;5.00;4.50;;;;;;;;;;10800381;26;20003;-65
2024/04/19 00:10:07;;;;;;;5.07;4.65;;;;;;;;;;10799029;26;20004;-66
2024/04/19 00:15:02;;;;;;;5.85;5.25;;;;;;;;;;10803157;26;20136;-66
2024/04/19 00:19:56;;;;;;;5.07;4.68;;;;;;;;;;10802684;26;20003;-66
2024/04/19 00:24:51;;;;;;;7.72;5.43;;;;;;;;;;10806675;26;20434;-66
2024/04/19 00:29:45;;;;;;;6.15;5.03;;;;;;;;;;10804027;26;20044;-66
2024/04/19 00:34:39;;;;;;;6.35;5.47;;;;;;;;;;10801139;26;20000;-66
2024/04/19 00:39:33;;;;;;;5.53;4.88;;;;;;;;;;10800371;26;20015;-66
2024/04/19 00:44:32;;;;;;;5.00;4.60;;;;;;;;;;10802062;26;20007;-65
2024/04/19 00:49:27;;;;;;;5.60;5.17;;;;;;;;;;10795263;26;20412;-65
2024/04/19 00:54:22;;;;;;;5.82;5.32;;;;;;;;;;10797263;26;20011;-66
2024/04/19 00:59:16;;;;;;;5.53;5.10;;;;;;;;;;10801346;26;20015;-65
2024/04/19 01:04:11;;;;;;;5.20;4.70;;;;;;;;;;10796046;26;20009;-65
2024/04/19 01:09:05;;;;;;;7.45;5.15;;;;;;;;;;10802138;26;20016;-65
2024/04/19 01:14:03;;;;;;;5.90;5.30;;;;;;;;;;10797808;26;20012;-65
2024/04/19 01:18:57;;;;;;;5.10;4.60;;;;;;;;;;10794950;26;20085;-66
2024/04/19 01:24:16;;;;;;;5.10;4.70;;;;;;;;;;10799592;26;20019;-66
2024/04/19 01:29:10;;;;;;;5.93;5.37;;;;;;;;;;10778420;26;20308;-66
2024/04/19 01:34:04;;;;;;;4.47;4.10;;;;;;;;;;10782520;26;20143;-66
2024/04/19 01:38:58;;;;;;;4.47;4.07;;;;;;;;;;10777834;26;20077;-66
2024/04/19 01:43:53;;;;;;;8.05;4.95;;;;;;;;;;10787625;26;20329;-63
2024/04/19 01:48:48;;;;;;;8.05;4.55;;;;;;;;;;10785319;26;20080;-65
2024/04/19 01:53:42;;;;;;;5.32;4.35;;;;;;;;;;10783700;26;20015;-64
2024/04/19 01:58:37;;;;;;;5.53;5.07;;;;;;;;;;10785281;26;20350;-65
2024/04/19 02:03:33;;;;;;;5.18;4.68;;;;;;;;;;10784869;26;20012;-66
2024/04/19 02:08:29;;;;;;;5.15;4.65;;;;;;;;;;10784367;26;20004;-65
2024/04/19 02:13:23;;;;;;;7.55;5.03;;;;;;;;;;10784589;26;20020;-65
2024/04/19 02:18:18;;;;;;;5.75;5.03;;;;;;;;;;10779237;26;20031;-65
2024/04/19 02:23:12;;;;;;;5.93;5.35;;;;;;;;;;10782285;26;20005;-65
2024/04/19 02:33:18;;;;;;;5.75;4.82;;;;;;;;;;10778566;26;20005;-65
2024/04/19 02:38:13;;;;;;;7.05;4.65;;;;;;;;;;10783465;26;20003;-65
2024/04/19 02:43:07;;;;;;;6.00;5.18;;;;;;;;;;10785903;26;20016;-66
2024/04/19 02:48:21;;;;;;;5.32;4.82;;;;;;;;;;10783747;26;20008;-65
2024/04/19 02:53:15;;;;;;;5.82;5.32;;;;;;;;;;10792702;26;19999;-65
2024/04/19 02:58:10;;;;;;;6.10;5.50;;;;;;;;;;10784328;26;20015;-65
2024/04/19 03:03:07;;;;;;;5.85;5.25;;;;;;;;;;10783646;26;20019;-65
2024/04/19 03:08:01;;;;;;;5.43;4.60;;;;;;;;;;10787245;26;20008;-65
2024/04/19 03:12:55;;;;;;;5.60;5.10;;;;;;;;;;10792160;26;20068;-65
2024/04/19 03:17:50;;;;;;;6.10;5.28;;;;;;;;;;10785195;26;20006;-65
2024/04/19 03:22:45;;;;;;;5.40;4.90;;;;;;;;;;10789064;26;20015;-65
2024/04/19 03:27:39;;;;;;;5.82;5.32;;;;;;;;;;10774963;26;20015;-65
2024/04/19 03:32:33;;;;;;;8.32;5.78;;;;;;;;;;10780608;26;20004;-65
2024/04/19 03:37:27;;;;;;;6.43;5.82;;;;;;;;;;10781596;26;20060;-66
2024/04/19 03:42:22;;;;;;;6.80;5.40;;;;;;;;;;10791916;26;20012;-65
2024/04/19 03:47:16;;;;;;;5.68;5.18;;;;;;;;;;10807356;26;20000;-65
2024/04/19 03:52:10;;;;;;;6.32;5.72;;;;;;;;;;10794266;26;20007;-66
2024/04/19 03:57:05;;;;;;;6.32;5.82;;;;;;;;;;10781879;26;20000;-65
2024/04/19 04:02:01;;;;;;;6.22;5.72;;;;;;;;;;10802950;26;20013;-64
2024/04/19 04:06:55;;;;;;;6.07;5.57;;;;;;;;;;10788599;26;20052;-65
2024/04/19 04:11:50;;;;;;;5.43;5.00;;;;;;;;;;10799435;26;20007;-66
2024/04/19 04:16:44;;;;;;;7.72;5.47;;;;;;;;;;10789397;26;20016;-64
2024/04/19 04:21:38;;;;;;;6.43;5.82;;;;;;;;;;10782407;26;20004;-64
2024/04/19 04:26:33;;;;;;;6.03;5.50;;;;;;;;;;10790791;26;20005;-65
2024/04/19 04:31:28;;;;;;;5.30;4.68;;;;;;;;;;10786352;26;20005;-65
2024/04/19 04:36:22;;;;;;;6.80;6.20;;;;;;;;;;10783252;26;20008;-65
2024/04/19 04:41:16;;;;;;;6.20;5.15;;;;;;;;;;10781668;26;20026;-65
2024/04/19 04:46:10;;;;;;;6.30;5.70;;;;;;;;;;10760457;26;20014;-65
2024/04/19 04:51:05;;;;;;;7.25;5.82;;;;;;;;;;10796311;26;20004;-65
2024/04/19 04:56:02;;;;;;;8.80;6.60;;;;;;;;;;10801750;26;20701;-65
2024/04/19 05:00:56;;;;;;;6.68;6.03;;;;;;;;;;10801167;26;20468;-64
2024/04/19 05:05:50;;;;;;;6.38;5.78;;;;;;;;;;10801126;26;20000;-64
2024/04/19 05:10:45;;;;;;;5.90;5.40;;;;;;;;;;10776404;26;20005;-65
2024/04/19 05:15:38;;;;;;;6.85;6.22;;;;;;;;;;10782835;26;20078;-64
2024/04/19 05:20:34;;;;;;;5.85;5.35;;;;;;;;;;10814533;26;20035;-66
2024/04/19 05:25:28;;;;;;;5.97;5.38;;;;;;;;;;10801247;26;20074;-64
2024/04/19 05:30:23;;;;;;;5.60;4.95;;;;;;;;;;10777494;26;20014;-64
2024/04/19 05:35:18;;;;;;;5.53;5.03;;;;;;;;;;10749749;26;20005;-65
2024/04/19 05:40:12;;;;;;;7.30;4.80;;;;;;;;;;10785516;26;20005;-64
2024/04/19 05:45:08;;;;;;;8.52;5.70;;;;;;;;;;10774331;26;20034;-65
2024/04/19 05:50:02;;;;;;;5.20;4.03;;;;;;;;;;10779267;26;20004;-65
2024/04/19 05:54:57;;;;;;;5.70;5.10;;;;;;;;;;10793760;26;20027;-65
2024/04/19 05:59:52;;;;;;;6.80;6.05;;;;;;;;;;10824522;26;20328;-63
2024/04/19 06:04:46;;;;;;;6.53;5.43;;;;;;;;;;10820440;26;20008;-64
2024/04/19 06:09:41;;;;;;;5.75;5.20;;;;;;;;;;10772141;26;20086;-63
2024/04/19 06:14:35;;;;;;;6.55;5.32;;;;;;;;;;10801623;26;20019;-63
2024/04/19 06:19:30;;;;;;;6.55;5.13;;;;;;;;;;10812481;26;20019;-64
2024/04/19 06:24:24;;;;;;;4.97;4.57;;;;;;;;;;10775919;26;20019;-67
2024/04/19 06:29:19;;;;;;;6.65;5.80;;;;;;;;;;10764442;26;20360;-64
2024/04/19 06:34:13;;;;;;;7.28;6.35;;;;;;;;;;10772053;26;20047;-64
2024/04/19 06:39:08;;;;;;;7.13;6.43;;;;;;;;;;10774312;26;20004;-64
2024/04/19 06:44:03;;;;;;;7.05;5.07;;;;;;;;;;10771502;26;20007;-64
2024/04/19 06:48:57;;;;;;;6.43;5.82;;;;;;;;;;10800775;26;20022;-65
2024/04/19 06:53:52;;;;;;;5.70;4.35;;;;;;;;;;10816895;26;20043;-65
2024/04/19 06:58:48;;;;;;;4.07;3.78;;;;;;;;;;10815890;26;20004;-65
2024/04/19 07:03:42;;;;;;;6.93;4.38;;;;;;;;;;10814656;26;20018;-65
2024/04/19 07:08:37;;;;;;;5.63;4.57;;;;;;;;;;10825916;26;20004;-65
2024/04/19 07:13:32;;;;;;;9.77;7.07;;;;;;;;;;10833310;26;20015;-65
2024/04/19 07:18:26;;;;;;;5.40;4.50;;;;;;;;;;10764191;26;20018;-65
2024/04/19 07:23:22;;;;;;;4.85;3.72;;;;;;;;;;10767892;26;20004;-65
2024/04/19 07:28:16;;;;;;;5.20;4.10;;;;;;;;;;10767529;26;20004;-65
2024/04/19 07:33:11;;;;;;;4.07;3.75;;;;;;;;;;10767471;26;19999;-64
2024/04/19 07:38:11;;;;;;;6.78;4.40;;;;;;;;;;10764267;26;20004;-64
2024/04/19 07:43:07;;;;;;;4.75;3.75;;;;;;;;;;10759797;26;20018;-65
2024/04/19 07:48:02;;;;;;;4.45;3.90;;;;;;;;;;10769308;26;20455;-65
2024/04/19 07:52:57;;;;;;;3.97;3.63;;;;;;;;;;10731922;26;20010;-64
2024/04/19 07:57:51;;;;;;;3.72;3.25;;;;;;;;;;10747303;26;20005;-64
2024/04/19 08:02:45;;;;;;;4.72;4.25;;;;;;;;;;10783159;26;20015;-65
2024/04/19 08:07:39;;;;;;;4.18;3.78;;;;;;;;;;10765308;26;20345;-65
2024/04/19 08:12:33;;;;;;;4.22;3.65;;;;;;;;;;10765587;26;20004;-66
2024/04/19 08:17:27;;;;;;;2.78;2.58;;;;;;;;;;10766879;26;20068;-65
2024/04/19 08:22:21;;;;;;;5.00;3.28;;;;;;;;;;10764455;26;20077;-64
2024/04/19 08:27:16;;;;;;;7.85;2.70;;;;;;;;;;10768645;26;20016;-64
2024/04/19 08:32:11;;;;;;;4.10;3.00;;;;;;;;;;10767005;26;19996;-64
2024/04/19 08:37:06;;;;;;;3.47;3.17;;;;;;;;;;10772416;26;20360;-64
2024/04/19 08:42:06;;;;;;;5.13;2.10;;;;;;;;;;10715121;26;20095;-66
2024/04/19 08:47:00;;;;;;;3.60;2.60;;;;;;;;;;10783837;26;20482;-67
2024/04/19 08:51:57;;;;;;;2.95;2.63;;;;;;;;;;10786254;26;20038;-66
2024/04/19 08:57:10;;;;;;;2.83;2.63;;;;;;;;;;10790871;26;20029;-66
2024/04/19 09:02:05;;;;;;;2.78;2.58;;;;;;;;;;10785169;26;20015;-66
2024/04/19 09:06:59;;;;;;;2.83;2.63;;;;;;;;;;10785122;26;20016;-64
2024/04/19 09:11:55;;;;;;;3.00;2.70;;;;;;;;;;10797053;26;20054;-65
2024/04/19 09:16:50;;;;;;;2.70;2.22;;;;;;;;;;10805076;26;20003;-65
2024/04/19 09:21:45;;;;;;;3.25;1.80;;;;;;;;;;10763971;26;20004;-66
2024/04/19 09:26:39;;;;;;;2.20;2.00;;;;;;;;;;10773605;26;20028;-65
2024/04/19 09:31:33;;;;;;;2.22;1.20;;;;;;;;;;10773623;26;20036;-65
2024/04/19 09:36:27;;;;;;;1.40;1.30;;;;;;;;;;10765970;26;20077;-64
2024/04/19 09:41:25;;;;;;;1.67;1.33;;;;;;;;;;10763260;26;20082;-65
2024/04/19 09:46:24;;;;;;;1.30;1.10;;;;;;;;;;10778591;26;20401;-65
2024/04/19 09:51:20;;;;;;;3.40;0.85;;;;;;;;;;10748110;26;20589;-65
2024/04/19 09:56:31;;;;;;;1.00;0.70;;;;;;;;;;10751498;26;20349;-64
2024/04/19 10:01:24;;;;;;;0.90;0.80;;;;;;;;;;10803218;26;20004;-65
2024/04/19 10:06:19;;;;;;;2.72;0.70;;;;;;;;;;10764952;26;20435;-65
2024/04/19 10:11:13;;;;;;;1.17;0.70;;;;;;;;;;10762977;26;20015;-65
2024/04/19 10:16:07;;;;;;;1.60;1.02;;;;;;;;;;10760065;26;20012;-64
2024/04/19 10:21:01;;;;;;;1.05;0.70;;;;;;;;;;10764770;26;20004;-65
2024/04/19 10:25:58;;;;;;;0.68;0.68;;;;;;;;;;10765917;26;20004;-64
2024/04/19 10:30:54;;;;;;;1.20;0.80;;;;;;;;;;10755082;26;20050;-65
2024/04/19 10:35:52;;;;;;;1.65;0.98;;;;;;;;;;10755840;26;20011;-65
2024/04/19 10:40:46;;;;;;;3.38;0.90;;;;;;;;;;10739577;26;20471;-65
2024/04/19 10:45:40;;;;;;;1.70;0.98;;;;;;;;;;10759003;26;20004;-65
2024/04/19 10:50:35;;;;;;;1.58;0.60;;;;;;;;;;10764370;26;20756;-66
2024/04/19 10:55:30;;;;;;;2.25;0.88;;;;;;;;;;10762316;26;20004;-65
2024/04/19 11:00:26;;;;;;;0.77;0.50;;;;;;;;;;10765236;26;20001;-66
2024/04/19 11:05:22;;;;;;;0.40;0.40;;;;;;;;;;10763235;26;20017;-65
2024/04/19 11:10:16;;;;;;;0.45;0.30;;;;;;;;;;10758573;26;20005;-64
2024/04/19 11:15:11;;;;;;;2.70;0.80;;;;;;;;;;10764259;26;20000;-65
2024/04/19 11:20:07;;;;;;;0.85;0.68;;;;;;;;;;10763386;26;20015;-65
2024/04/19 11:25:02;;;;;;;1.20;0.68;;;;;;;;;;10770297;26;20004;-65
2024/04/19 11:29:57;;;;;;;2.42;0.70;;;;;;;;;;10759510;26;20433;-63
2024/04/19 11:34:51;;;;;;;1.77;0.70;;;;;;;;;;10761542;26;20017;-64
2024/04/19 11:39:46;;;;;;;2.85;0.88;;;;;;;;;;10753337;26;20004;-65
2024/04/19 11:44:44;;;;;;;1.05;0.75;;;;;;;;;;10729813;26;20005;-64
2024/04/19 11:49:37;;;;;;;2.28;0.82;;;;;;;;;;10757967;26;20112;-65
2024/04/19 11:54:32;;;;;;;1.00;1.00;;;;;;;;;;10760657;26;20382;-63
2024/04/19 11:59:26;;;;;;;1.17;1.13;;;;;;;;;;10762231;26;20047;-64
2024/04/19 12:04:20;;;;;;;0.82;0.82;;;;;;;;;;10722599;26;20004;-65
2024/04/19 12:09:16;;;;;;;1.02;1.00;;;;;;;;;;10767788;26;20019;-63
2024/04/19 12:14:11;;;;;;;1.88;1.08;;;;;;;;;;10770139;26;20016;-63
2024/04/19 12:19:24;;;;;;;4.63;1.85;;;;;;;;;;10755992;26;20083;-63
2024/04/19 12:24:18;;;;;;;1.67;1.10;;;;;;;;;;10762203;26;20015;-64
2024/04/19 12:29:12;;;;;;;1.70;1.60;;;;;;;;;;10764395;26;20015;-63
2024/04/19 12:34:06;;;;;;;4.85;1.70;;;;;;;;;;10766229;26;20000;-64
2024/04/19 12:39:02;;;;;;;1.50;1.40;;;;;;;;;;10765733;26;20004;-64
2024/04/19 12:43:59;;;;;;;3.67;1.60;;;;;;;;;;10761274;26;20012;-64
2024/04/19 12:49:02;;;;;;;2.25;1.45;;;;;;;;;;10765029;26;20008;-64
2024/04/19 12:53:56;;;;;;;1.63;1.52;;;;;;;;;;10760182;26;20432;-65
2024/04/19 12:58:50;;;;;;;1.50;0.98;;;;;;;;;;10773294;26;20352;-64
2024/04/19 13:03:44;;;;;;;2.15;1.20;;;;;;;;;;10754922;26;20440;-64
2024/04/19 13:08:43;;;;;;;1.42;1.33;;;;;;;;;;10762803;26;20006;-65
2024/04/19 13:13:58;;;;;;;1.50;1.17;;;;;;;;;;10761150;26;20004;-63
2024/04/19 13:18:52;;;;;;;1.25;1.15;;;;;;;;;;10762097;26;20004;-64
2024/04/19 13:23:46;;;;;;;2.08;1.30;;;;;;;;;;10762571;26;20090;-64
2024/04/19 13:28:40;;;;;;;2.75;1.45;;;;;;;;;;10761002;26;20054;-64
2024/04/19 13:33:35;;;;;;;2.20;1.40;;;;;;;;;;10761997;26;20000;-64
2024/04/19 13:38:30;;;;;;;2.95;1.40;;;;;;;;;;10795021;26;20005;-64
2024/04/19 13:43:24;;;;;;;1.52;1.42;;;;;;;;;;10784993;26;20015;-63
2024/04/19 13:48:18;;;;;;;3.58;1.35;;;;;;;;;;10781798;26;20326;-64
2024/04/19 13:53:13;;;;;;;1.15;1.15;;;;;;;;;;10789998;26;20477;-64
2024/04/19 13:58:09;;;;;;;2.83;1.25;;;;;;;;;;10776760;26;20032;-63
2024/04/19 14:03:05;;;;;;;2.15;1.48;;;;;;;;;;10793358;26;20004;-63
2024/04/19 14:08:00;;;;;;;3.50;1.40;;;;;;;;;;10806462;26;20000;-62
2024/04/19 14:12:57;;;;;;;2.47;1.20;;;;;;;;;;10810744;26;20007;-63
2024/04/19 14:17:52;;;;;;;3.30;1.10;;;;;;;;;;10814022;26;20721;-64
2024/04/19 14:22:46;;;;;;;1.52;1.23;;;;;;;;;;10813912;26;20249;-63
2024/04/19 14:27:44;;;;;;;2.40;1.20;;;;;;;;;;10777065;26;20016;-63
2024/04/19 14:32:38;;;;;;;1.20;1.10;;;;;;;;;;10764366;26;20004;-64
2024/04/19 14:37:31;;;;;;;2.45;1.30;;;;;;;;;;10782923;26;20016;-64
2024/04/19 14:42:27;;;;;;;3.00;1.63;;;;;;;;;;10769799;26;20041;-63
2024/04/19 14:47:21;;;;;;;3.30;1.25;;;;;;;;;;10786237;26;20016;-63
2024/04/19 14:52:15;;;;;;;2.88;1.40;;;;;;;;;;10780653;26;20008;-64
2024/04/19 14:57:12;;;;;;;1.45;1.35;;;;;;;;;;10779258;26;20024;-63
2024/04/19 15:02:06;;;;;;;3.28;1.40;;;;;;;;;;10777114;26;20016;-63
2024/04/19 15:07:01;;;;;;;3.13;1.65;;;;;;;;;;10798374;26;20046;-64
2024/04/19 15:11:55;;;;;;;1.23;1.10;;;;;;;;;;10801425;26;20076;-63
2024/04/19 15:16:49;;;;;;;1.20;1.10;;;;;;;;;;10795143;26;20015;-64
2024/04/19 15:21:44;;;;;;;3.35;1.40;;;;;;;;;;10799509;26;20331;-64
2024/04/19 15:26:38;;;;;;;3.55;1.40;;;;;;;;;;10786934;26;20018;-64
2024/04/19 15:31:34;;;;;;;1.10;1.10;;;;;;;;;;10799463;26;20004;-65
2024/04/19 15:36:32;;;;;;;3.20;1.48;;;;;;;;;;10794563;26;20503;-64
2024/04/19 15:41:26;;;;;;;1.10;1.10;;;;;;;;;;10766943;26;20008;-64
2024/04/19 15:46:39;;;;;;;1.10;1.10;;;;;;;;;;10786184;26;20078;-64
2024/04/19 15:51:33;;;;;;;1.77;1.67;;;;;;;;;;10782048;26;20004;-64
2024/04/19 15:56:27;;;;;;;9.00;1.42;;;;;;;;;;10788716;26;20082;-64
2024/04/19 16:01:23;;;;;;;1.60;1.50;;;;;;;;;;10784462;26;20016;-64
2024/04/19 16:06:18;;;;;;;2.45;1.70;;;;;;;;;;10795379;26;20592;-64
2024/04/19 16:11:12;;;;;;;3.42;2.35;;;;;;;;;;10774456;26;20003;-64
2024/04/19 16:16:09;;;;;;;3.42;2.08;;;;;;;;;;10816051;26;20015;-63
2024/04/19 16:21:05;;;;;;;1.70;1.60;;;;;;;;;;10806601;26;19999;-65
2024/04/19 16:25:59;;;;;;;1.70;1.52;;;;;;;;;;10811276;26;20015;-63
2024/04/19 16:30:54;;;;;;;3.42;1.60;;;;;;;;;;10815123;26;20023;-63
2024/04/19 16:35:48;;;;;;;1.63;1.50;;;;;;;;;;10821730;26;20082;-64
2024/04/19 16:40:56;;;;;;;1.90;1.27;;;;;;;;;;10791480;26;20015;-64
2024/04/19 16:45:50;;;;;;;4.05;1.90;;;;;;;;;;10784282;26;20014;-64
2024/04/19 16:50:45;;;;;;;2.63;1.92;;;;;;;;;;10798296;26;20467;-63
2024/04/19 16:55:38;;;;;;;2.00;1.73;;;;;;;;;;10809300;26;20825;-64
2024/04/19 17:00:32;;;;;;;1.75;1.45;;;;;;;;;;10798188;26;20005;-64
2024/04/19 17:05:26;;;;;;;1.83;1.60;;;;;;;;;;10748453;26;20014;-63
2024/04/19 17:10:20;;;;;;;2.67;1.80;;;;;;;;;;10818362;26;20005;-64
2024/04/19 17:15:15;;;;;;;1.25;1.15;;;;;;;;;;10807142;26;20000;-64
2024/04/19 17:20:09;;;;;;;2.20;0.90;;;;;;;;;;10765642;26;20005;-63
2024/04/19 17:25:07;;;;;;;7.40;1.10;;;;;;;;;;10766645;26;20448;-64
2024/04/19 17:30:01;;;;;;;0.70;0.70;;;;;;;;;;10741506;26;20018;-64
2024/04/19 17:34:55;;;;;;;0.82;0.80;;;;;;;;;;10767996;26;20234;-64
2024/04/19 17:39:49;;;;;;;1.60;0.75;;;;;;;;;;10766596;26;20011;-64
2024/04/19 17:44:43;;;;;;;2.42;0.90;;;;;;;;;;10766569;26;20008;-64
2024/04/19 17:49:38;;;;;;;6.07;0.70;;;;;;;;;;10764248;26;20008;-62
2024/04/19 17:54:32;;;;;;;1.75;1.38;;;;;;;;;;10765760;26;20005;-64
2024/04/19 17:59:27;;;;;;;0.70;0.70;;;;;;;;;;10768781;26;20008;-64
2024/04/19 18:04:21;;;;;;;2.05;1.85;;;;;;;;;;10765476;26;20063;-64
2024/04/19 18:09:17;;;;;;;6.82;5.63;;;;;;;;;;10764335;26;20004;-64
2024/04/19 18:14:10;;;;;;;6.07;5.43;;;;;;;;;;10768361;26;20004;-64
2024/04/19 18:19:04;;;;;;;5.07;4.03;;;;;;;;;;10756189;26;20000;-64
2024/04/19 18:23:58;;;;;;;9.48;7.55;;;;;;;;;;10759094;26;20351;-64
2024/04/19 18:28:57;;;;;;;3.28;2.15;;;;;;;;;;10745640;26;20001;-64
2024/04/19 18:34:00;;;;;;;2.03;1.65;;;;;;;;;;10757042;26;20004;-64
2024/04/19 18:38:54;;;;;;;4.72;4.18;;;;;;;;;;10738613;26;20079;-64
2024/04/19 18:43:48;;;;;;;7.43;5.90;;;;;;;;;;10757783;26;20000;-64
2024/04/19 18:48:41;;;;;;;5.15;3.90;;;;;;;;;;10747543;26;20000;-64
2024/04/19 18:53:35;;;;;;;3.65;2.90;;;;;;;;;;10769364;26;20018;-63
2024/04/19 18:58:31;;;;;;;5.32;2.90;;;;;;;;;;10766526;26;20023;-64
2024/04/19 19:03:24;;;;;;;3.78;1.88;;;;;;;;;;10773209;26;20004;-64
2024/04/19 19:08:19;;;;;;;2.17;1.77;;;;;;;;;;10768350;26;20019;-64
2024/04/19 19:13:13;;;;;;;2.63;1.80;;;;;;;;;;10769831;26;20011;-64
2024/04/19 19:18:07;;;;;;;14.73;12.70;;;;;;;;;;10769346;26;20041;-64
2024/04/19 19:23:02;;;;;;;1.30;1.20;;;;;;;;;;10771101;26;20008;-64
2024/04/19 19:27:57;;;;;;;3.65;2.13;;;;;;;;;;10764658;26;20077;-64
2024/04/19 19:32:52;;;;;;;6.38;2.22;;;;;;;;;;10772201;26;20008;-64
2024/04/19 19:37:46;;;;;;;5.00;4.00;;;;;;;;;;10766451;26;20051;-64
2024/04/19 19:42:40;;;;;;;10.07;7.05;;;;;;;;;;10768718;26;20483;-64
2024/04/19 19:47:33;;;;;;;3.00;2.50;;;;;;;;;;10740187;26;20000;-63
2024/04/19 19:52:27;;;;;;;1.27;1.17;;;;;;;;;;10770070;26;19996;-64
2024/04/19 19:57:21;;;;;;;1.52;1.20;;;;;;;;;;10767613;26;20005;-64
2024/04/19 20:07:27;;;;;;;3.75;2.05;;;;;;;;;;10763314;26;20004;-64
2024/04/19 20:12:21;;;;;;;3.00;1.42;;;;;;;;;;10761727;26;20089;-63
2024/04/19 20:17:15;;;;;;;2.58;1.60;;;;;;;;;;10754249;26;20004;-64
2024/04/19 20:22:10;;;;;;;2.72;1.20;;;;;;;;;;10781337;26;20000;-65
2024/04/19 20:27:04;;;;;;;1.48;1.00;;;;;;;;;;10762851;26;20329;-64
2024/04/19 20:32:01;;;;;;;0.82;0.82;;;;;;;;;;10764547;26;20093;-65
2024/04/19 20:36:58;;;;;;;1.15;1.00;;;;;;;;;;10739425;26;20008;-64
2024/04/19 20:41:53;;;;;;;1.10;1.00;;;;;;;;;;10776599;26;20074;-64
2024/04/19 20:46:47;;;;;;;0.85;0.85;;;;;;;;;;10764000;26;20015;-64
2024/04/19 20:51:42;;;;;;;1.20;1.10;;;;;;;;;;10790046;26;20004;-64
2024/04/19 20:56:35;;;;;;;2.47;1.40;;;;;;;;;;10788577;26;20459;-66
2024/04/19 21:01:29;;;;;;;2.95;1.40;;;;;;;;;;10782641;26;20082;-64
2024/04/19 21:06:24;;;;;;;1.75;1.20;;;;;;;;;;10783074;26;20005;-63
2024/04/19 21:11:18;;;;;;;0.90;0.90;;;;;;;;;;10805466;26;20003;-64
2024/04/19 21:16:13;;;;;;;1.10;1.05;;;;;;;;;;10771590;26;20004;-64
2024/04/19 21:21:09;;;;;;;2.00;1.33;;;;;;;;;;10763051;26;20040;-64
2024/04/19 21:26:03;;;;;;;1.60;1.10;;;;;;;;;;10763366;26;20004;-64
2024/04/19 21:31:04;;;;;;;1.10;1.00;;;;;;;;;;10763726;26;20001;-64
2024/04/19 21:35:59;;;;;;;0.95;0.90;;;;;;;;;;10765293;26;20008;-64
2024/04/19 21:40:54;;;;;;;0.90;0.90;;;;;;;;;;10765434;26;20047;-64
2024/04/19 21:45:48;;;;;;;0.95;0.93;;;;;;;;;;10763251;26;20011;-64
2024/04/19 21:50:42;;;;;;;1.38;1.00;;;;;;;;;;10764212;26;20018;-64
2024/04/19 21:55:36;;;;;;;0.98;0.98;;;;;;;;;;10762380;26;20343;-64
2024/04/19 22:00:29;;;;;;;1.73;1.17;;;;;;;;;;10759593;26;20015;-63
2024/04/19 22:05:23;;;;;;;1.52;1.10;;;;;;;;;;10773827;26;20004;-64
2024/04/19 22:10:17;;;;;;;13.55;1.55;;;;;;;;;;10762413;26;20066;-64
2024/04/19 22:15:12;;;;;;;2.40;1.17;;;;;;;;;;10764325;26;20309;-64
2024/04/19 22:20:10;;;;;;;1.25;1.15;;;;;;;;;;10767585;26;20015;-64
2024/04/19 22:25:05;;;;;;;1.75;1.63;;;;;;;;;;10762987;26;20020;-64
2024/04/19 22:29:59;;;;;;;2.17;1.30;;;;;;;;;;10756213;26;20506;-63
2024/04/19 22:34:52;;;;;;;1.45;1.10;;;;;;;;;;10762677;26;20040;-64
2024/04/19 22:39:49;;;;;;;2.47;1.00;;;;;;;;;;10765347;26;20015;-63
2024/04/19 22:44:44;;;;;;;1.52;1.17;;;;;;;;;;10759224;26;20016;-64
2024/04/19 22:49:38;;;;;;;1.73;1.10;;;;;;;;;;10763638;26;20004;-64
2024/04/19 22:54:32;;;;;;;2.15;1.08;;;;;;;;;;10759595;26;20004;-65
2024/04/19 22:59:26;;;;;;;2.10;1.02;;;;;;;;;;10760854;26;20015;-65
2024/04/19 23:04:21;;;;;;;1.00;1.00;;;;;;;;;;10765314;26;20012;-64
2024/04/19 23:09:15;;;;;;;1.30;1.20;;;;;;;;;;10764091;26;20089;-64
2024/04/19 23:14:10;;;;;;;1.10;1.00;;;;;;;;;;10767605;26;20023;-65
2024/04/19 23:19:04;;;;;;;2.88;1.25;;;;;;;;;;10760855;26;20012;-64
2024/04/19 23:23:59;;;;;;;0.98;0.98;;;;;;;;;;10763267;26;20004;-64
2024/04/19 23:28:53;;;;;;;1.25;1.13;;;;;;;;;;10772381;26;20003;-65
2024/04/19 23:33:57;;;;;;;0.90;0.90;;;;;;;;;;10749480;26;20010;-64
2024/04/19 23:38:52;;;;;;;1.90;1.17;;;;;;;;;;10760275;26;20000;-65
2024/04/19 23:43:45;;;;;;;1.70;1.33;;;;;;;;;;10754090;26;20020;-65
2024/04/19 23:48:40;;;;;;;0.98;0.98;;;;;;;;;;10767538;26;20019;-64
2024/04/19 23:53:34;;;;;;;2.10;1.10;;;;;;;;;;10764646;26;20004;-64
2024/04/19 23:58:27;;;;;;;0.88;0.88;;;;;;;;;;10768744;26;20036;-64
